createdAt,value
2022-12-29T00:00:08.745Z,98342.81
2022-12-29T00:02:43.207Z,98338.69
2022-12-29T00:05:11.731Z,98335.19
2022-12-29T00:07:40.324Z,98341.53
2022-12-29T00:10:09.197Z,98348.59
2022-12-29T00:12:56.076Z,98347.34
2022-12-29T00:15:39.453Z,98342.06
2022-12-29T00:18:08.471Z,98341.88
2022-12-29T00:20:56.730Z,98340.13
2022-12-29T00:23:43.481Z,98347.63
2022-12-29T00:26:37.889Z,98351.50
2022-12-29T00:29:24.413Z,98354.81
2022-12-29T00:32:11.115Z,98363.31
2022-12-29T00:34:57.832Z,98352.78
2022-12-29T00:37:46.506Z,98361.03
2022-12-29T00:40:33.441Z,98359.31
2022-12-29T00:43:20.717Z,98357.22
2022-12-29T00:45:49.243Z,98360.91
2022-12-29T00:48:37.533Z,98353.41
2022-12-29T00:51:06.241Z,98352.22
2022-12-29T00:53:35.970Z,98356.91
2022-12-29T00:56:04.525Z,98349.69
2022-12-29T00:58:32.874Z,98353.22
2022-12-29T01:01:06.347Z,98348.09
2022-12-29T01:03:36.618Z,98342.28
2022-12-29T01:06:06.600Z,98354.19
2022-12-29T01:08:35.788Z,98354.63
2022-12-29T01:11:13.543Z,98361.00
2022-12-29T01:13:43.762Z,98361.75
2022-12-29T01:16:13.278Z,98356.75
2022-12-29T01:18:42.848Z,98356.56
2022-12-29T01:21:11.163Z,98350.19
2022-12-29T01:23:39.513Z,98339.75
2022-12-29T01:26:12.039Z,98341.41
2022-12-29T01:28:41.467Z,98331.78
2022-12-29T01:31:14.352Z,98331.97
2022-12-29T01:33:43.428Z,98338.09
2022-12-29T01:36:13.596Z,98338.69
2022-12-29T01:38:42.828Z,98331.66
2022-12-29T01:41:12.379Z,98333.66
2022-12-29T01:43:44.579Z,98322.03
2022-12-29T01:46:27.888Z,98318.34
2022-12-29T01:49:08.850Z,98306.97
2022-12-29T01:51:42.643Z,98315.63
2022-12-29T01:54:32.916Z,98308.59
2022-12-29T01:57:03.787Z,98305.09
2022-12-29T01:59:38.177Z,98293.59
2022-12-29T02:02:06.658Z,98286.19
2022-12-29T02:04:35.790Z,98278.91
2022-12-29T02:07:10.356Z,98285.16
2022-12-29T02:09:38.628Z,98281.69
2022-12-29T02:12:07.327Z,98286.28
2022-12-29T02:14:35.861Z,98277.69
2022-12-29T02:17:13.766Z,98273.38
2022-12-29T02:20:01.357Z,98266.69
2022-12-29T02:22:30.598Z,98272.94
2022-12-29T02:25:27.407Z,98272.50
2022-12-29T02:28:19.975Z,98262.56
2022-12-29T02:31:21.519Z,98258.97
2022-12-29T02:34:08.769Z,98264.16
2022-12-29T02:37:14.918Z,98262.56
2022-12-29T02:39:52.195Z,98256.03
2022-12-29T02:42:29.472Z,98257.94
2022-12-29T02:45:07.532Z,98252.03
2022-12-29T02:47:43.615Z,98247.09
2022-12-29T02:50:35.171Z,98253.66
2022-12-29T02:53:08.285Z,98255.66
2022-12-29T02:55:36.677Z,98254.50
2022-12-29T02:58:18.041Z,98252.28
2022-12-29T03:01:17.106Z,98254.81
2022-12-29T03:03:57.267Z,98252.38
2022-12-29T03:06:34.762Z,98251.22
2022-12-29T03:09:21.882Z,98248.66
2022-12-29T03:12:15.333Z,98259.66
2022-12-29T03:15:05.016Z,98254.69
2022-12-29T03:17:58.500Z,98254.75
2022-12-29T03:20:33.167Z,98252.13
2022-12-29T03:23:03.365Z,98262.31
2022-12-29T03:25:37.135Z,98261.97
2022-12-29T03:28:14.213Z,98266.09
2022-12-29T03:30:46.133Z,98262.41
2022-12-29T03:33:23.623Z,98266.66
2022-12-29T03:35:53.058Z,98271.72
2022-12-29T03:38:24.655Z,98273.09
2022-12-29T03:40:56.047Z,98263.34
2022-12-29T03:43:25.504Z,98269.19
2022-12-29T03:45:54.017Z,98281.47
2022-12-29T03:48:22.341Z,98273.38
2022-12-29T03:50:52.479Z,98282.38
2022-12-29T03:53:21.005Z,98283.50
2022-12-29T03:55:49.446Z,98270.03
2022-12-29T03:58:17.935Z,98264.91
2022-12-29T04:01:08.381Z,98274.75
2022-12-29T04:03:40.490Z,98263.44
2022-12-29T04:06:09.466Z,98260.47
2022-12-29T04:08:47.761Z,98269.09
2022-12-29T04:11:16.142Z,98252.31
2022-12-29T04:13:44.644Z,98255.56
2022-12-29T04:16:16.939Z,98263.41
2022-12-29T04:18:45.543Z,98255.38
2022-12-29T04:21:14.594Z,98242.88
2022-12-29T04:23:44.668Z,98255.53
2022-12-29T04:26:14.695Z,98255.22
2022-12-29T04:29:05.933Z,98275.44
2022-12-29T04:32:00.189Z,98262.41
2022-12-29T04:34:30.734Z,98267.84
2022-12-29T04:37:00.826Z,98271.34
2022-12-29T04:39:30.473Z,98275.41
2022-12-29T04:41:59.086Z,98286.16
2022-12-29T04:44:27.821Z,98286.78
2022-12-29T04:47:13.654Z,98287.38
2022-12-29T04:49:51.789Z,98280.19
2022-12-29T04:52:55.789Z,98294.50
2022-12-29T04:55:24.186Z,98288.28
2022-12-29T04:57:52.663Z,98288.69
2022-12-29T05:00:21.808Z,98289.81
2022-12-29T05:02:50.464Z,98293.91
2022-12-29T05:05:19.231Z,98292.66
2022-12-29T05:07:50.873Z,98294.75
2022-12-29T05:10:19.616Z,98288.63
2022-12-29T05:12:49.997Z,98285.84
2022-12-29T05:15:19.387Z,98303.03
2022-12-29T05:17:47.719Z,98292.16
2022-12-29T05:20:16.444Z,98299.63
2022-12-29T05:22:47.544Z,98303.88
2022-12-29T05:25:17.062Z,98302.91
2022-12-29T05:27:56.006Z,98308.56
2022-12-29T05:30:44.015Z,98304.41
2022-12-29T05:33:13.108Z,98308.19
2022-12-29T05:35:42.248Z,98313.22
2022-12-29T05:38:11.517Z,98310.53
2022-12-29T05:40:40.345Z,98310.28
2022-12-29T05:43:20.534Z,98311.94
2022-12-29T05:46:10.113Z,98319.56
2022-12-29T05:49:01.606Z,98319.56
2022-12-29T05:51:50.164Z,98317.75
2022-12-29T05:54:18.747Z,98330.75
2022-12-29T05:56:47.670Z,98335.47
2022-12-29T05:59:16.174Z,98329.63
2022-12-29T06:01:44.766Z,98336.41
2022-12-29T06:04:13.943Z,98332.00
2022-12-29T06:06:42.907Z,98334.75
2022-12-29T06:09:18.609Z,98342.06
2022-12-29T06:11:47.000Z,98336.28
2022-12-29T06:14:15.775Z,98332.22
2022-12-29T06:16:44.418Z,98337.88
2022-12-29T06:19:15.401Z,98340.28
2022-12-29T06:21:43.849Z,98341.97
2022-12-29T06:24:12.555Z,98341.09
2022-12-29T06:26:41.460Z,98347.28
2022-12-29T06:29:09.910Z,98343.72
2022-12-29T06:31:38.515Z,98346.31
2022-12-29T06:34:08.643Z,98343.91
2022-12-29T06:36:38.631Z,98349.66
2022-12-29T06:39:07.311Z,98343.72
2022-12-29T06:41:36.512Z,98336.97
2022-12-29T06:44:23.468Z,98344.25
2022-12-29T06:46:55.024Z,98346.56
2022-12-29T06:49:23.323Z,98343.94
2022-12-29T06:51:51.832Z,98346.97
2022-12-29T06:54:20.073Z,98350.75
2022-12-29T06:56:48.676Z,98354.78
2022-12-29T06:59:17.970Z,98360.06
2022-12-29T07:01:46.886Z,98352.44
2022-12-29T07:04:15.487Z,98354.59
2022-12-29T07:06:43.891Z,98355.81
2022-12-29T07:09:12.590Z,98351.88
2022-12-29T07:11:40.982Z,98361.13
2022-12-29T07:14:09.621Z,98354.59
2022-12-29T07:16:38.450Z,98350.03
2022-12-29T07:19:07.116Z,98356.41
2022-12-29T07:21:35.720Z,98354.00
2022-12-29T07:24:04.481Z,98351.44
2022-12-29T07:26:36.301Z,98355.41
2022-12-29T07:29:05.561Z,98359.25
2022-12-29T07:31:34.087Z,98353.09
2022-12-29T07:34:02.684Z,98352.16
2022-12-29T07:36:54.163Z,98349.09
2022-12-29T07:39:55.423Z,98357.44
2022-12-29T07:42:58.465Z,98351.56
2022-12-29T07:49:04.778Z,98350.06
2022-12-29T07:51:37.519Z,98347.78
2022-12-29T07:54:06.032Z,98343.19
2022-12-29T07:56:34.306Z,98343.66
2022-12-29T07:59:02.829Z,98348.50
2022-12-29T08:01:31.521Z,98333.91
2022-12-29T08:04:00.025Z,98340.19
2022-12-29T08:06:28.591Z,98341.66
2022-12-29T08:08:57.532Z,98335.03
2022-12-29T08:11:25.998Z,98341.69
2022-12-29T08:13:54.496Z,98333.28
2022-12-29T08:16:22.981Z,98342.34
2022-12-29T08:18:51.658Z,98350.00
2022-12-29T08:21:20.326Z,98338.59
2022-12-29T08:23:49.085Z,98345.31
2022-12-29T08:26:17.562Z,98336.09
2022-12-29T08:28:45.894Z,98330.56
2022-12-29T08:31:15.812Z,98329.31
2022-12-29T08:33:44.125Z,98334.19
2022-12-29T08:36:12.728Z,98325.53
2022-12-29T08:38:41.108Z,98329.19
2022-12-29T08:41:09.630Z,98324.88
2022-12-29T08:43:38.023Z,98323.06
2022-12-29T08:46:06.539Z,98311.88
2022-12-29T08:48:34.945Z,98314.69
2022-12-29T08:51:03.439Z,98318.00
2022-12-29T08:53:32.448Z,98307.75
2022-12-29T08:56:05.160Z,98302.19
2022-12-29T08:58:44.198Z,98295.44
2022-12-29T09:01:13.007Z,98287.00
2022-12-29T09:06:32.621Z,98289.81
2022-12-29T09:09:03.551Z,98279.78
2022-12-29T09:11:32.053Z,98283.19
2022-12-29T09:14:00.862Z,98280.31
2022-12-29T09:16:29.683Z,98277.31
2022-12-29T09:18:58.322Z,98271.44
2022-12-29T09:21:27.342Z,98261.69
2022-12-29T09:23:56.854Z,98256.03
2022-12-29T09:26:25.348Z,98249.97
2022-12-29T09:28:53.723Z,98255.44
2022-12-29T09:31:22.196Z,98242.94
2022-12-29T09:33:50.614Z,98249.03
2022-12-29T09:36:19.074Z,98255.72
2022-12-29T09:38:47.483Z,98244.44
2022-12-29T09:41:22.609Z,98237.13
2022-12-29T09:43:57.360Z,98235.38
2022-12-29T09:46:30.810Z,98233.28
2022-12-29T09:49:09.997Z,98235.06
2022-12-29T09:51:39.165Z,98238.09
2022-12-29T09:54:22.784Z,98234.16
2022-12-29T09:56:51.344Z,98244.91
2022-12-29T09:59:21.913Z,98242.91
2022-12-29T10:02:02.782Z,98239.31
2022-12-29T10:04:31.274Z,98235.44
2022-12-29T10:07:28.644Z,98237.50
2022-12-29T10:10:05.158Z,98231.00
2022-12-29T10:12:39.546Z,98230.78
2022-12-29T10:15:17.708Z,98223.94
2022-12-29T10:18:31.990Z,98219.94
2022-12-29T10:21:10.131Z,98219.13
2022-12-29T10:23:50.133Z,98214.66
2022-12-29T10:26:27.887Z,98211.03
2022-12-29T10:29:07.104Z,98212.75
2022-12-29T10:31:58.067Z,98202.41
2022-12-29T10:34:40.125Z,98202.78
2022-12-29T10:37:33.774Z,98195.53
2022-12-29T10:40:04.344Z,98200.56
2022-12-29T10:42:44.645Z,98187.19
2022-12-29T10:45:17.156Z,98189.22
2022-12-29T10:47:57.482Z,98184.88
2022-12-29T10:50:26.724Z,98184.31
2022-12-29T10:52:55.358Z,98175.91
2022-12-29T10:55:29.273Z,98180.94
2022-12-29T10:57:58.576Z,98179.41
2022-12-29T11:00:26.922Z,98178.44
2022-12-29T11:03:23.354Z,98182.50
2022-12-29T11:05:56.898Z,98168.75
2022-12-29T11:08:27.206Z,98163.63
2022-12-29T11:11:03.381Z,98171.81
2022-12-29T11:13:38.871Z,98164.31
2022-12-29T11:16:08.148Z,98170.31
2022-12-29T11:18:41.080Z,98168.25
2022-12-29T11:21:41.536Z,98161.06
2022-12-29T11:24:24.714Z,98157.41
2022-12-29T11:26:58.845Z,98154.88
2022-12-29T11:29:38.207Z,98159.78
2022-12-29T11:32:29.078Z,98154.56
2022-12-29T11:35:02.418Z,98157.63
2022-12-29T11:37:35.767Z,98143.00
2022-12-29T11:40:09.424Z,98152.28
2022-12-29T11:42:49.212Z,98143.38
2022-12-29T11:45:19.629Z,98147.69
2022-12-29T11:47:59.210Z,98139.75
2022-12-29T11:50:38.830Z,98140.78
2022-12-29T11:53:07.706Z,98132.66
2022-12-29T11:55:36.013Z,98130.03
2022-12-29T11:58:04.603Z,98137.94
2022-12-29T12:00:34.064Z,98135.47
2022-12-29T12:03:26.376Z,98131.03
2022-12-29T12:05:57.660Z,98131.50
2022-12-29T12:08:36.897Z,98128.34
2022-12-29T12:11:08.875Z,98130.25
2022-12-29T12:14:03.893Z,98129.25
2022-12-29T12:16:56.485Z,98125.00
2022-12-29T12:19:28.016Z,98119.31
2022-12-29T12:22:15.275Z,98122.03
2022-12-29T12:25:06.739Z,98117.59
2022-12-29T12:27:53.051Z,98119.09
2022-12-29T12:30:26.159Z,98109.91
2022-12-29T12:33:15.237Z,98107.88
2022-12-29T12:36:01.580Z,98106.19
2022-12-29T12:38:50.786Z,98112.03
2022-12-29T12:41:46.721Z,98110.97
2022-12-29T12:44:39.915Z,98109.31
2022-12-29T12:47:34.335Z,98112.88
2022-12-29T12:50:18.752Z,98111.16
2022-12-29T12:53:27.617Z,98112.63
2022-12-29T12:56:05.524Z,98117.56
2022-12-29T12:58:37.835Z,98127.34
2022-12-29T13:01:16.094Z,98132.53
2022-12-29T13:03:54.927Z,98119.13
2022-12-29T13:06:54.063Z,98121.53
2022-12-29T13:09:28.589Z,98122.78
2022-12-29T13:12:00.134Z,98128.13
2022-12-29T13:14:52.733Z,98125.16
2022-12-29T13:17:38.782Z,98127.97
2022-12-29T13:20:12.862Z,98133.81
2022-12-29T13:23:02.894Z,98129.84
2022-12-29T13:25:42.976Z,98129.84
2022-12-29T13:28:27.731Z,98131.44
2022-12-29T13:31:19.789Z,98132.25
2022-12-29T13:34:03.275Z,98133.81
2022-12-29T13:36:44.583Z,98136.59
2022-12-29T13:39:21.069Z,98140.78
2022-12-29T13:41:55.017Z,98133.41
2022-12-29T13:44:37.259Z,98130.38
2022-12-29T13:47:24.053Z,98132.25
2022-12-29T13:49:52.566Z,98146.41
2022-12-29T13:52:36.387Z,98134.91
2022-12-29T13:55:23.063Z,98141.44
2022-12-29T13:58:14.019Z,98135.34
2022-12-29T14:01:13.337Z,98149.94
2022-12-29T14:03:49.553Z,98147.81
2022-12-29T14:06:22.067Z,98155.66
2022-12-29T14:08:51.514Z,98150.44
2022-12-29T14:11:22.831Z,98142.53
2022-12-29T14:13:51.309Z,98145.41
2022-12-29T14:16:26.216Z,98147.16
2022-12-29T14:18:55.612Z,98149.09
2022-12-29T14:21:29.123Z,98140.13
2022-12-29T14:24:21.226Z,98153.94
2022-12-29T14:26:49.891Z,98149.75
2022-12-29T14:29:30.173Z,98147.31
2022-12-29T14:31:59.012Z,98144.53
2022-12-29T14:34:30.150Z,98145.88
2022-12-29T14:37:00.788Z,98144.03
2022-12-29T14:39:35.137Z,98158.97
2022-12-29T14:42:07.517Z,98154.66
2022-12-29T14:44:36.245Z,98152.84
2022-12-29T14:47:09.521Z,98152.16
2022-12-29T14:49:43.272Z,98149.66
2022-12-29T14:52:20.577Z,98157.25
2022-12-29T14:54:59.100Z,98162.34
2022-12-29T14:57:39.226Z,98156.94
2022-12-29T15:00:18.149Z,98163.97
2022-12-29T15:02:50.231Z,98158.59
2022-12-29T15:05:31.847Z,98164.47
2022-12-29T15:08:00.503Z,98158.78
2022-12-29T15:10:32.673Z,98162.25
2022-12-29T15:13:06.023Z,98162.81
2022-12-29T15:15:38.718Z,98166.63
2022-12-29T15:18:27.535Z,98168.06
2022-12-29T15:21:06.014Z,98178.78
2022-12-29T15:23:35.381Z,98170.75
2022-12-29T15:26:06.409Z,98173.13
2022-12-29T15:28:42.562Z,98175.09
2022-12-29T15:31:30.263Z,98168.47
2022-12-29T15:34:21.438Z,98171.94
2022-12-29T15:36:51.581Z,98170.72
2022-12-29T15:39:27.986Z,98169.88
2022-12-29T15:42:24.437Z,98170.88
2022-12-29T15:44:57.926Z,98173.00
2022-12-29T15:47:31.904Z,98170.88
2022-12-29T15:50:06.827Z,98168.41
2022-12-29T15:52:35.383Z,98169.00
2022-12-29T15:55:04.923Z,98173.66
2022-12-29T15:57:44.723Z,98176.94
2022-12-29T16:00:31.277Z,98171.78
2022-12-29T16:03:04.159Z,98184.06
2022-12-29T16:05:37.127Z,98178.44
2022-12-29T16:08:22.484Z,98175.06
2022-12-29T16:10:51.882Z,98169.84
2022-12-29T16:13:35.518Z,98172.03
2022-12-29T16:16:10.936Z,98173.00
2022-12-29T16:18:39.728Z,98186.28
2022-12-29T16:21:34.441Z,98184.47
2022-12-29T16:24:06.920Z,98183.84
2022-12-29T16:26:35.516Z,98183.66
2022-12-29T16:29:06.675Z,98186.25
2022-12-29T16:31:37.148Z,98195.56
2022-12-29T16:34:30.937Z,98202.41
2022-12-29T16:37:06.738Z,98198.53
2022-12-29T16:39:40.901Z,98185.66
2022-12-29T16:42:35.306Z,98195.91
2022-12-29T16:45:23.924Z,98191.03
2022-12-29T16:48:08.306Z,98185.28
2022-12-29T16:50:40.392Z,98193.88
2022-12-29T16:53:25.644Z,98194.94
2022-12-29T16:55:55.012Z,98203.94
2022-12-29T16:58:26.229Z,98196.44
2022-12-29T17:00:58.683Z,98197.41
2022-12-29T17:03:34.708Z,98206.88
2022-12-29T17:06:04.279Z,98200.59
2022-12-29T17:08:42.743Z,98198.47
2022-12-29T17:11:51.262Z,98205.00
2022-12-29T17:14:29.283Z,98201.75
2022-12-29T17:16:58.211Z,98195.28
2022-12-29T17:19:32.767Z,98199.72
2022-12-29T17:22:01.972Z,98201.03
2022-12-29T17:24:30.928Z,98199.34
2022-12-29T17:27:01.205Z,98198.22
2022-12-29T17:29:38.209Z,98194.66
2022-12-29T17:32:08.609Z,98194.28
2022-12-29T17:34:37.639Z,98193.50
2022-12-29T17:37:27.457Z,98192.78
2022-12-29T17:39:56.308Z,98203.41
2022-12-29T17:42:26.388Z,98200.91
2022-12-29T17:44:55.737Z,98196.59
2022-12-29T17:47:24.618Z,98187.31
2022-12-29T17:49:53.556Z,98197.66
2022-12-29T17:52:25.456Z,98195.94
2022-12-29T17:54:57.988Z,98191.88
2022-12-29T17:57:26.989Z,98183.84
2022-12-29T17:59:56.623Z,98185.84
2022-12-29T18:02:32.651Z,98195.25
2022-12-29T18:05:01.542Z,98187.22
2022-12-29T18:07:35.681Z,98192.72
2022-12-29T18:10:05.498Z,98188.28
2022-12-29T18:12:41.466Z,98188.88
2022-12-29T18:15:24.359Z,98183.06
2022-12-29T18:18:01.787Z,98196.31
2022-12-29T18:20:31.275Z,98194.56
2022-12-29T18:23:05.307Z,98180.94
2022-12-29T18:25:54.366Z,98199.72
2022-12-29T18:28:24.247Z,98184.47
2022-12-29T18:30:53.826Z,98188.81
2022-12-29T18:33:26.288Z,98191.22
2022-12-29T18:36:02.305Z,98190.16
2022-12-29T18:38:30.824Z,98188.81
2022-12-29T18:41:00.050Z,98185.19
2022-12-29T18:43:29.012Z,98189.75
2022-12-29T18:45:58.311Z,98180.72
2022-12-29T18:48:28.387Z,98184.13
2022-12-29T18:50:57.869Z,98181.16
2022-12-29T18:53:26.693Z,98179.81
2022-12-29T18:55:58.973Z,98187.66
2022-12-29T18:58:33.944Z,98186.47
2022-12-29T19:01:04.286Z,98183.81
2022-12-29T19:03:33.246Z,98187.03
2022-12-29T19:06:01.864Z,98184.66
2022-12-29T19:08:30.733Z,98183.97
2022-12-29T19:11:03.725Z,98179.06
2022-12-29T19:13:32.350Z,98181.25
2022-12-29T19:16:02.288Z,98185.78
2022-12-29T19:18:53.357Z,98183.50
2022-12-29T19:21:20.595Z,98195.31
2022-12-29T19:23:49.670Z,98188.16
2022-12-29T19:26:35.392Z,98192.63
2022-12-29T19:29:07.778Z,98194.56
2022-12-29T19:31:39.055Z,98191.59
2022-12-29T19:34:07.618Z,98201.94
2022-12-29T19:36:38.583Z,98197.75
2022-12-29T19:39:08.741Z,98202.59
2022-12-29T19:41:38.739Z,98192.16
2022-12-29T19:44:08.979Z,98193.06
2022-12-29T19:46:37.837Z,98198.44
2022-12-29T19:49:06.998Z,98199.53
2022-12-29T19:51:35.730Z,98194.31
2022-12-29T19:54:04.841Z,98204.88
2022-12-29T19:56:34.536Z,98199.03
2022-12-29T19:59:06.404Z,98200.22
2022-12-29T20:01:35.420Z,98198.22
2022-12-29T20:04:04.493Z,98204.41
2022-12-29T20:06:32.940Z,98190.97
2022-12-29T20:09:03.062Z,98192.91
2022-12-29T20:11:32.365Z,98200.13
2022-12-29T20:14:01.342Z,98192.47
2022-12-29T20:16:33.325Z,98186.53
2022-12-29T20:19:01.843Z,98185.97
2022-12-29T20:21:32.500Z,98187.09
2022-12-29T20:24:01.217Z,98186.44
2022-12-29T20:26:31.353Z,98192.78
2022-12-29T20:29:01.268Z,98195.78
2022-12-29T20:31:32.870Z,98194.34
2022-12-29T20:34:02.260Z,98194.03
2022-12-29T20:36:32.837Z,98197.47
2022-12-29T20:39:04.773Z,98180.53
2022-12-29T20:41:33.377Z,98186.22
2022-12-29T20:44:02.322Z,98188.28
2022-12-29T20:46:36.710Z,98193.63
2022-12-29T20:49:11.733Z,98200.22
2022-12-29T20:52:05.178Z,98212.16
2022-12-29T20:54:30.751Z,98201.59
2022-12-29T20:57:03.555Z,98208.91
2022-12-29T20:59:32.363Z,98209.53
2022-12-29T21:02:01.038Z,98196.53
2022-12-29T21:04:50.237Z,98193.94
2022-12-29T21:07:20.352Z,98203.00
2022-12-29T21:09:49.673Z,98201.84
2022-12-29T21:12:20.936Z,98185.97
2022-12-29T21:14:49.428Z,98179.88
2022-12-29T21:17:19.064Z,98181.16
2022-12-29T21:19:47.701Z,98178.41
2022-12-29T21:22:16.283Z,98177.97
2022-12-29T21:24:44.644Z,98173.19
2022-12-29T21:27:13.070Z,98182.53
2022-12-29T21:29:41.532Z,98170.00
2022-12-29T21:32:09.987Z,98171.88
2022-12-29T21:34:38.467Z,98175.88
2022-12-29T21:37:06.920Z,98178.19
2022-12-29T21:39:35.418Z,98177.53
2022-12-29T21:42:04.008Z,98182.69
2022-12-29T21:44:50.678Z,98181.13
2022-12-29T21:47:19.287Z,98168.84
2022-12-29T21:49:48.120Z,98182.31
2022-12-29T21:52:16.618Z,98166.78
2022-12-29T21:55:05.344Z,98169.59
2022-12-29T21:57:52.293Z,98173.81
2022-12-29T22:00:39.120Z,98173.13
2022-12-29T22:03:26.139Z,98172.47
2022-12-29T22:06:13.081Z,98174.75
2022-12-29T22:09:00.583Z,98172.63
2022-12-29T22:11:47.582Z,98166.13
2022-12-29T22:14:15.990Z,98171.81
2022-12-29T22:16:44.543Z,98180.88
2022-12-29T22:19:12.893Z,98164.25
2022-12-29T22:21:41.526Z,98171.28
2022-12-29T22:24:10.253Z,98178.44
2022-12-29T22:26:38.678Z,98178.56
2022-12-29T22:29:07.127Z,98179.28
2022-12-29T22:31:35.630Z,98175.44
2022-12-29T22:34:04.475Z,98168.91
2022-12-29T22:36:33.684Z,98170.03
2022-12-29T22:39:02.262Z,98172.59
2022-12-29T22:41:30.790Z,98170.91
2022-12-29T22:43:59.247Z,98167.75
2022-12-29T22:46:27.897Z,98180.88
2022-12-29T22:48:57.465Z,98169.31
2022-12-29T22:51:26.617Z,98167.38
2022-12-29T22:53:55.121Z,98165.22
2022-12-29T22:56:24.370Z,98166.53
2022-12-29T22:58:53.227Z,98170.47
2022-12-29T23:01:22.972Z,98161.63
2022-12-29T23:03:51.876Z,98170.38
2022-12-29T23:06:20.430Z,98159.34
2022-12-29T23:08:48.975Z,98165.50
2022-12-29T23:11:17.537Z,98159.91
2022-12-29T23:13:46.388Z,98163.72
2022-12-29T23:16:15.824Z,98156.78
2022-12-29T23:18:44.856Z,98155.41
2022-12-29T23:21:13.930Z,98162.28
2022-12-29T23:23:54.098Z,98155.47
2022-12-29T23:26:27.375Z,98160.50
2022-12-29T23:28:59.871Z,98153.63
2022-12-29T23:31:29.399Z,98147.59
2022-12-29T23:34:01.575Z,98144.75
2022-12-29T23:36:30.267Z,98145.25
2022-12-29T23:38:58.888Z,98145.19
2022-12-29T23:41:27.581Z,98140.81
2022-12-29T23:43:56.223Z,98144.72
2022-12-29T23:46:25.869Z,98139.66
2022-12-29T23:48:54.421Z,98124.53
2022-12-29T23:51:22.857Z,98138.75
2022-12-29T23:53:51.484Z,98138.09
2022-12-29T23:56:21.543Z,98131.22
2022-12-29T23:58:50.428Z,98137.47
